Farrell, Pennsylvania
Current Conditions -  °F | °C
As of 11:51 AM on Saturday 22 Nov 2014 (Local Time) from KYNG Reporting Station
Light Rain Light Rain  
Wind Chill: 26°   Ceiling: 500
Heat Index: 34°   Visibility: 5mi
Dew Point: 32°   Wind: 10mph
Humidity: 92%   Direction: 190°S
Pressure: 30.16"   Gusts: NA
Location:  41.22°N, 80.51°W
Report Text: KYNG 221651Z 19009KT 5SM -RA BR OVC005 01/00 A3016 RMK AO2 RAE01B29FZRAB01E17 SLP230 P0003 I1001 T00110000
Loading
Personal Weather Stations






























Interactive Weather Map New forecast layout! Learn more

10-Day Weather Forecast

Advertisements
Track Severe Weather on mobile